Time;durP1;ratioP1;P1;durP2;ratioP2;P2;SDS_P1;SDS_P2;PMS_P1;PMS_P2;Temp;Humidity;BMP_temperature;BMP_pressure;BME280_temperature;BME280_humidity;BME280_pressure;Samples;Min_cycle;Max_cycle;Signal;HPM_P1;HPM_P2
2022/09/26 00:00:42;;;;;;;5.95;1.85;;;;;;;12.92;78.28;100790.28;4992281;28;20395;-38
2022/09/26 00:03:09;;;;;;;7.90;1.80;;;;;;;12.96;79.43;100797.00;4992803;28;20057;-38
2022/09/26 00:05:36;;;;;;;10.50;2.33;;;;;;;12.92;79.33;100790.28;4992434;28;20084;-39
2022/09/26 00:08:02;;;;;;;6.72;1.50;;;;;;;12.94;77.58;100780.13;4993140;28;20053;-38
2022/09/26 00:10:27;;;;;;;9.15;1.70;;;;;;;12.98;75.26;100769.78;4992642;28;20096;-39
2022/09/26 00:12:54;;;;;;;9.73;1.60;;;;;;;13.04;75.13;100762.75;4992790;28;20494;-39
2022/09/26 00:15:19;;;;;;;4.20;1.55;;;;;;;13.04;75.53;100751.94;4982141;28;20413;-38
2022/09/26 00:17:45;;;;;;;8.65;1.50;;;;;;;13.04;76.01;100735.72;4992666;28;20037;-39
2022/09/26 00:20:10;;;;;;;12.23;1.50;;;;;;;13.03;75.14;100734.88;4992809;28;20500;-40
2022/09/26 00:22:36;;;;;;;8.48;1.83;;;;;;;13.01;75.17;100728.03;4992273;28;20529;-39
2022/09/26 00:25:01;;;;;;;7.07;1.58;;;;;;;12.99;74.33;100725.50;4991491;28;20030;-40
2022/09/26 00:27:26;;;;;;;6.07;1.52;;;;;;;13.00;75.42;100718.25;4992132;28;20117;-39
2022/09/26 00:29:52;;;;;;;8.35;1.63;;;;;;;12.95;75.35;100717.00;4973119;28;20026;-40
2022/09/26 00:32:17;;;;;;;7.78;1.75;;;;;;;12.97;75.70;100719.47;4971162;28;20118;-39
2022/09/26 00:34:42;;;;;;;5.35;1.63;;;;;;;12.95;75.57;100714.28;4987210;28;20046;-39
2022/09/26 00:37:08;;;;;;;2.45;1.40;;;;;;;12.96;74.67;100702.44;4991767;28;20442;-39
2022/09/26 00:39:33;;;;;;;8.50;1.35;;;;;;;12.98;74.23;100696.00;4991855;28;20018;-41
2022/09/26 00:41:58;;;;;;;8.00;1.40;;;;;;;12.99;74.42;100689.56;4991666;28;20038;-39
2022/09/26 00:44:36;;;;;;;7.85;1.35;;;;;;;13.00;74.02;100685.81;4991694;28;20092;-39
2022/09/26 00:47:02;;;;;;;9.68;1.50;;;;;;;13.01;73.75;100677.53;4991997;28;20045;-41
2022/09/26 00:49:31;;;;;;;5.72;1.40;;;;;;;13.01;73.16;100676.69;4974476;28;20038;-39
2022/09/26 00:52:25;;;;;;;13.13;1.88;;;;;;;13.08;77.52;100664.03;4974738;28;20042;-39
2022/09/26 00:54:53;;;;;;;9.90;1.90;;;;;;;12.97;78.65;100654.63;4988237;28;20050;-39
2022/09/26 00:57:22;;;;;;;9.35;2.00;;;;;;;12.91;79.83;100653.59;4991328;28;20545;-40
2022/09/26 00:59:53;;;;;;;7.57;2.30;;;;;;;12.87;81.14;100652.31;4991617;28;20339;-39
2022/09/26 01:02:18;;;;;;;8.10;2.00;;;;;;;12.76;82.10;100646.66;4984077;28;20062;-38
2022/09/26 01:04:44;;;;;;;9.35;2.20;;;;;;;12.68;82.86;100637.69;4991182;28;20054;-39
2022/09/26 01:07:21;;;;;;;13.05;2.58;;;;;;;12.63;83.69;100620.44;4974079;28;20050;-39
2022/09/26 01:09:47;;;;;;;9.25;3.13;;;;;;;12.60;84.14;100615.44;4990223;28;20527;-39
2022/09/26 01:12:13;;;;;;;12.65;2.38;;;;;;;12.55;84.49;100613.34;4991292;28;20030;-38
2022/09/26 01:14:40;;;;;;;8.80;2.00;;;;;;;12.48;85.00;100602.53;4989730;28;20410;-38
2022/09/26 01:17:06;;;;;;;19.17;2.55;;;;;;;12.47;85.50;100587.34;4984030;28;20026;-38
2022/09/26 01:20:02;;;;;;;6.05;1.60;;;;;;;12.48;85.51;100586.31;4969349;28;20481;-40
2022/09/26 01:22:39;;;;;;;16.33;2.28;;;;;;;12.45;85.70;100575.06;4991254;28;20080;-38
2022/09/26 01:25:54;;;;;;;3.58;1.85;;;;;;;12.40;86.38;100566.75;4983034;28;20034;-39
2022/09/26 01:28:41;;;;;;;17.00;2.53;;;;;;;12.39;86.27;100565.91;4991420;28;20041;-39
2022/09/26 01:31:16;;;;;;;28.02;2.65;;;;;;;12.40;86.38;100566.75;4991359;28;20138;-38
2022/09/26 01:33:44;;;;;;;17.10;2.42;;;;;;;12.43;86.43;100566.38;4984293;28;20030;-40
2022/09/26 01:36:20;;;;;;;12.10;2.70;;;;;;;12.40;86.91;100562.22;4971541;28;20386;-39
2022/09/26 01:39:31;;;;;;;11.68;2.45;;;;;;;12.40;87.23;100556.81;4975572;28;20062;-39
2022/09/26 01:42:02;;;;;;;11.07;2.78;;;;;;;12.34;87.30;100563.00;4958045;28;20042;-39
2022/09/26 01:44:34;;;;;;;11.50;2.72;;;;;;;12.35;87.43;100564.66;4994809;28;20065;-39
2022/09/26 01:47:22;;;;;;;10.15;2.72;;;;;;;12.38;87.65;100558.88;4977574;28;20030;-39
2022/09/26 01:50:02;;;;;;;13.23;3.42;;;;;;;12.33;87.57;100550.53;4978035;28;20031;-38
2022/09/26 01:52:42;;;;;;;17.90;2.95;;;;;;;12.39;87.38;100548.91;4976804;28;20426;-39
2022/09/26 01:55:21;;;;;;;8.10;2.88;;;;;;;12.36;87.27;100533.13;4976925;28;20041;-39
2022/09/26 01:57:58;;;;;;;15.88;2.88;;;;;;;12.35;87.39;100526.03;4976925;28;20062;-38
2022/09/26 02:00:24;;;;;;;17.17;3.30;;;;;;;12.30;87.69;100530.19;4994626;28;20038;-38
2022/09/26 02:02:49;;;;;;;12.88;3.17;;;;;;;12.28;87.78;100515.22;4972968;28;20177;-38
2022/09/26 02:08:00;;;;;;;13.93;3.15;;;;;;;12.29;87.39;100500.69;5038296;23;20069;-35
2022/09/26 02:10:37;;;;;;;14.93;2.95;;;;;;;12.29;87.32;100498.00;5014454;28;20068;-35
2022/09/26 02:13:12;;;;;;;14.88;3.10;;;;;;;12.26;87.24;100490.31;5015172;28;20064;-35
2022/09/26 02:15:39;;;;;;;13.57;3.22;;;;;;;12.27;86.69;100497.38;4996729;28;20629;-36
2022/09/26 02:18:14;;;;;;;14.07;3.28;;;;;;;12.27;86.58;100492.81;5014699;28;20036;-35
2022/09/26 02:20:43;;;;;;;13.30;3.08;;;;;;;12.29;86.33;100485.31;4996906;28;20038;-34
2022/09/26 02:23:08;;;;;;;12.73;2.78;;;;;;;12.30;85.35;100484.31;4997029;28;20030;-35
2022/09/26 02:25:34;;;;;;;11.77;2.63;;;;;;;12.36;84.42;100477.28;5014730;28;20029;-35
2022/09/26 02:28:00;;;;;;;14.88;3.00;;;;;;;12.40;83.76;100475.84;4996872;28;20442;-35
2022/09/26 02:30:25;;;;;;;12.82;2.72;;;;;;;12.42;82.70;100468.34;5014825;28;20030;-34
2022/09/26 02:32:51;;;;;;;32.90;3.42;;;;;;;12.47;81.83;100460.47;4996872;28;20104;-34
2022/09/26 02:38:01;;;;;;;10.18;3.92;;;;;;;12.51;81.21;100450.13;5014477;28;20048;-34
2022/09/26 02:40:35;;;;;;;16.45;3.70;;;;;;;12.51;80.92;100450.94;5014204;28;20030;-36
2022/09/26 02:43:16;;;;;;;10.30;2.60;;;;;;;12.51;80.70;100440.16;4997355;28;20042;-35
2022/09/26 02:45:47;;;;;;;12.23;2.60;;;;;;;12.49;80.22;100434.13;5014340;28;20050;-33
2022/09/26 02:48:36;;;;;;;13.32;2.70;;;;;;;12.48;79.86;100432.47;4997235;28;20033;-34
2022/09/26 02:51:14;;;;;;;10.40;2.53;;;;;;;12.50;79.53;100408.78;5013332;28;20064;-33
2022/09/26 02:54:01;;;;;;;9.05;2.70;;;;;;;12.51;79.31;100410.47;5014505;28;20041;-34
2022/09/26 02:56:39;;;;;;;9.77;2.67;;;;;;;12.54;78.80;100409.22;5013728;28;20034;-36
2022/09/26 02:59:04;;;;;;;8.93;2.60;;;;;;;12.51;78.84;100402.38;5014121;28;20449;-34
2022/09/26 03:02:07;;;;;;;6.13;2.30;;;;;;;12.48;78.94;100408.19;5013776;28;20061;-35
2022/09/26 03:04:39;;;;;;;13.73;2.80;;;;;;;12.46;78.36;100383.25;4996101;28;20033;-35
2022/09/26 03:07:09;;;;;;;18.27;3.00;;;;;;;12.47;78.44;100382.22;5013598;28;20054;-35
2022/09/26 03:09:35;;;;;;;9.77;2.53;;;;;;;12.47;78.53;100381.38;4995957;28;20140;-35
2022/09/26 03:12:04;;;;;;;12.52;3.08;;;;;;;12.42;78.32;100368.50;4996455;28;20029;-34
2022/09/26 03:14:30;;;;;;;13.57;2.50;;;;;;;12.43;78.07;100367.47;4995794;28;20037;-34
2022/09/26 03:16:56;;;;;;;13.68;3.08;;;;;;;12.42;78.10;100364.97;5013729;28;20049;-34
2022/09/26 03:19:26;;;;;;;11.13;2.55;;;;;;;12.40;77.79;100350.84;4995750;28;20346;-35
2022/09/26 03:21:53;;;;;;;6.35;2.80;;;;;;;12.39;77.36;100350.03;5013978;28;20122;-33
2022/09/26 03:24:19;;;;;;;18.10;3.15;;;;;;;12.37;77.69;100341.28;5014147;28;20038;-34
2022/09/26 03:26:45;;;;;;;11.45;2.50;;;;;;;12.35;77.72;100339.84;5014046;28;20041;-34
2022/09/26 03:29:11;;;;;;;11.75;2.95;;;;;;;12.29;78.53;100336.09;4996105;28;20049;-33
2022/09/26 03:31:36;;;;;;;9.75;2.88;;;;;;;12.25;78.98;100332.16;5013607;28;20428;-35
2022/09/26 03:34:02;;;;;;;15.05;2.65;;;;;;;12.21;79.82;100329.03;5013381;28;20026;-34
2022/09/26 03:36:28;;;;;;;14.05;2.55;;;;;;;12.15;80.71;100316.38;4995551;28;20041;-35
2022/09/26 03:38:53;;;;;;;12.50;2.97;;;;;;;12.12;82.19;100302.47;5012954;28;20507;-35
2022/09/26 03:41:18;;;;;;;13.40;2.80;;;;;;;11.94;82.71;100295.78;5011365;28;20101;-33
2022/09/26 03:43:44;;;;;;;20.55;4.05;;;;;;;11.85;84.03;100289.72;5013133;28;20058;-34
2022/09/26 03:46:14;;;;;;;10.77;2.85;;;;;;;11.78;85.33;100290.75;5013125;28;20026;-37
2022/09/26 03:48:40;;;;;;;11.18;3.00;;;;;;;11.68;85.80;100288.44;5012451;28;20033;-37
2022/09/26 03:51:08;;;;;;;14.73;3.47;;;;;;;11.63;84.97;100274.72;4976764;28;20041;-37
2022/09/26 03:53:35;;;;;;;15.35;4.25;;;;;;;11.62;85.65;100273.06;5012157;28;20371;-36
2022/09/26 03:56:09;;;;;;;12.35;2.97;;;;;;;11.59;85.61;100263.53;5011285;28;20108;-39
2022/09/26 03:58:34;;;;;;;11.10;2.60;;;;;;;11.59;85.41;100266.22;4990258;28;20104;-37
2022/09/26 04:01:27;;;;;;;10.95;2.80;;;;;;;11.58;84.51;100253.75;5005138;28;20165;-39
2022/09/26 04:03:52;;;;;;;15.02;2.80;;;;;;;11.58;85.06;100251.06;4987024;28;20034;-36
2022/09/26 04:06:19;;;;;;;7.53;2.30;;;;;;;11.58;84.93;100248.38;5009060;28;20129;-37
2022/09/26 04:08:46;;;;;;;32.42;3.22;;;;;;;11.56;84.86;100231.59;5011256;28;20136;-36
2022/09/26 04:11:14;;;;;;;9.32;2.95;;;;;;;11.58;83.88;100228.69;5001783;28;20112;-37
2022/09/26 04:13:42;;;;;;;11.98;3.05;;;;;;;11.56;83.90;100231.59;4977148;28;20030;-37
2022/09/26 04:16:08;;;;;;;6.55;2.38;;;;;;;11.57;84.42;100227.84;4993851;28;20132;-37
2022/09/26 04:18:34;;;;;;;26.90;3.13;;;;;;;11.57;84.69;100214.38;5011074;28;20026;-36
2022/09/26 04:21:01;;;;;;;8.02;3.13;;;;;;;11.56;84.79;100218.13;5011208;28;20099;-36
2022/09/26 04:23:28;;;;;;;12.40;2.97;;;;;;;11.54;84.43;100206.72;5011106;28;20025;-36
2022/09/26 04:25:54;;;;;;;10.50;3.23;;;;;;;11.56;84.98;100203.81;5010879;28;20048;-36
2022/09/26 04:28:22;;;;;;;11.15;2.85;;;;;;;11.55;84.90;100186.81;5010583;28;20033;-35
2022/09/26 04:30:48;;;;;;;;;;;;;;;11.58;84.37;100174.78;4991359;28;20038;-35
2022/09/26 04:33:13;;;;;;;13.70;3.30;;;;;;;11.61;84.47;100167.13;5018300;28;19913;-35
2022/09/26 04:35:39;;;;;;;11.98;3.20;;;;;;;11.61;84.78;100163.59;5011571;28;20116;-36
2022/09/26 04:38:04;;;;;;;11.43;2.97;;;;;;;11.60;84.70;100157.38;5015261;28;20030;-35
2022/09/26 04:40:30;;;;;;;6.47;3.30;;;;;;;11.62;84.22;100159.88;5010355;28;20049;-35
2022/09/26 04:42:56;;;;;;;12.20;3.35;;;;;;;11.67;83.82;100151.19;5011240;28;20496;-35
2022/09/26 04:45:21;;;;;;;18.70;4.65;;;;;;;11.68;84.72;100137.47;5010893;28;20026;-34
2022/09/26 04:47:47;;;;;;;9.10;3.50;;;;;;;11.63;84.54;100140.78;5010440;28;20492;-38
2022/09/26 04:50:12;;;;;;;12.77;3.35;;;;;;;11.64;85.17;100131.69;4992623;28;20033;-35
2022/09/26 04:52:37;;;;;;;12.77;3.25;;;;;;;11.63;85.21;100135.41;5010808;28;20444;-36
2022/09/26 04:55:03;;;;;;;7.32;3.30;;;;;;;11.61;85.29;100137.50;4992986;28;20025;-36
2022/09/26 04:57:29;;;;;;;13.10;3.95;;;;;;;11.60;85.07;100129.59;5011280;28;20322;-36
2022/09/26 04:59:54;;;;;;;14.57;4.50;;;;;;;11.60;85.13;100121.50;5010478;28;20026;-36
2022/09/26 05:02:19;;;;;;;9.80;3.50;;;;;;;11.58;85.14;100115.50;4991505;28;20022;-34
2022/09/26 05:04:47;;;;;;;23.30;4.63;;;;;;;11.54;85.71;100109.69;5010962;28;20025;-34
2022/09/26 05:07:13;;;;;;;15.13;3.57;;;;;;;11.50;86.14;100103.03;5010175;28;20145;-34
2022/09/26 05:09:38;;;;;;;15.43;3.70;;;;;;;11.51;86.14;100098.50;5010969;28;20536;-37
2022/09/26 05:12:05;;;;;;;15.38;3.90;;;;;;;11.47;86.44;100098.06;5007415;28;20156;-36
2022/09/26 05:14:31;;;;;;;23.58;4.50;;;;;;;11.49;86.19;100098.69;5008690;28;20022;-35
2022/09/26 05:16:56;;;;;;;15.70;3.63;;;;;;;11.49;85.90;100073.63;5009848;28;20025;-36
2022/09/26 05:19:22;;;;;;;12.02;3.75;;;;;;;11.48;86.19;100070.13;5010007;28;20080;-35
2022/09/26 05:21:47;;;;;;;17.60;4.03;;;;;;;11.47;86.43;100063.03;5010379;28;20034;-34
2022/09/26 05:26:56;;;;;;;11.80;3.50;;;;;;;11.45;86.78;100050.81;5005808;28;20060;-34
2022/09/26 05:29:21;;;;;;;17.02;4.25;;;;;;;11.46;87.23;100052.50;5010459;28;20398;-35
2022/09/26 05:31:47;;;;;;;15.20;4.32;;;;;;;11.41;87.49;100040.47;5010442;28;20033;-34
2022/09/26 05:34:12;;;;;;;11.68;4.00;;;;;;;11.45;87.39;100035.47;4993595;28;20022;-35
2022/09/26 05:36:38;;;;;;;13.13;3.85;;;;;;;11.49;87.60;100025.94;5010793;28;20120;-33
2022/09/26 05:39:05;;;;;;;18.33;4.72;;;;;;;11.43;87.45;100026.78;5010819;28;20052;-34
2022/09/26 05:41:31;;;;;;;14.98;4.22;;;;;;;11.42;87.79;100022.41;5009843;28;20050;-35
2022/09/26 05:43:56;;;;;;;16.55;4.10;;;;;;;11.40;87.70;100017.25;4992460;28;20038;-34
2022/09/26 05:46:22;;;;;;;11.05;3.67;;;;;;;11.42;87.81;100019.72;5009598;28;20409;-34
2022/09/26 05:48:48;;;;;;;10.45;3.40;;;;;;;11.42;87.80;100006.25;5009993;28;20030;-35
2022/09/26 05:51:16;;;;;;;28.58;4.00;;;;;;;11.42;88.04;100015.16;4992425;28;20021;-34
2022/09/26 05:53:43;;;;;;;17.73;4.45;;;;;;;11.43;88.05;100014.13;4992776;28;20464;-35
2022/09/26 05:56:09;;;;;;;13.07;3.97;;;;;;;11.45;88.19;99996.94;5009418;28;20026;-35
2022/09/26 05:58:36;;;;;;;15.75;4.30;;;;;;;11.42;88.35;99992.78;5009829;28;20287;-34
2022/09/26 06:01:07;;;;;;;11.73;3.38;;;;;;;11.44;88.54;99993.41;5010287;28;20022;-35
2022/09/26 06:03:34;;;;;;;15.93;3.80;;;;;;;11.46;88.42;99977.03;5008686;28;20038;-36
2022/09/26 06:06:06;;;;;;;11.85;3.83;;;;;;;11.47;88.07;99976.81;5009522;28;20040;-35
2022/09/26 06:08:32;;;;;;;11.05;3.80;;;;;;;11.49;88.06;99984.72;5010182;28;20038;-34
2022/09/26 06:11:06;;;;;;;11.40;3.95;;;;;;;11.50;88.20;99978.28;5009363;28;20080;-34
2022/09/26 06:13:32;;;;;;;8.75;3.80;;;;;;;11.49;88.45;99979.31;5009930;28;20099;-35
2022/09/26 06:16:07;;;;;;;12.77;3.72;;;;;;;11.52;88.66;99970.81;4991923;28;20033;-35
2022/09/26 06:18:36;;;;;;;20.80;4.70;;;;;;;11.51;89.02;99963.78;4990102;28;20060;-35
2022/09/26 06:21:06;;;;;;;13.65;3.90;;;;;;;11.51;89.16;99959.22;4998806;28;20034;-36
2022/09/26 06:23:35;;;;;;;8.93;3.42;;;;;;;11.53;89.46;99946.38;4991748;28;20096;-35
2022/09/26 06:26:02;;;;;;;20.15;4.43;;;;;;;11.54;89.67;99941.78;4997343;28;20369;-36
2022/09/26 06:28:29;;;;;;;13.02;4.00;;;;;;;11.56;89.08;99937.84;4994369;28;20030;-35
2022/09/26 06:30:55;;;;;;;28.40;5.80;;;;;;;11.55;89.19;99936.19;4994922;28;20026;-36
2022/09/26 06:33:20;;;;;;;20.75;4.38;;;;;;;11.56;89.08;99928.94;4995228;28;20025;-35
2022/09/26 06:35:46;;;;;;;11.77;4.20;;;;;;;11.57;89.40;99923.31;5013071;28;20044;-35
2022/09/26 06:38:11;;;;;;;25.17;4.10;;;;;;;11.60;89.48;99914.81;5012436;28;20500;-34
2022/09/26 06:40:37;;;;;;;11.52;4.07;;;;;;;11.62;89.40;99907.34;4995681;28;20043;-36
2022/09/26 06:43:02;;;;;;;12.05;3.85;;;;;;;11.63;89.46;99906.31;4986586;28;20032;-34
2022/09/26 06:45:27;;;;;;;19.70;4.15;;;;;;;11.66;89.64;99899.66;5009451;28;20073;-35
2022/09/26 06:47:53;;;;;;;21.83;4.43;;;;;;;11.65;89.22;99888.06;5006466;28;20060;-34
2022/09/26 06:50:20;;;;;;;14.48;4.05;;;;;;;11.70;89.21;99881.22;4994345;28;20037;-35
2022/09/26 06:52:46;;;;;;;20.23;3.90;;;;;;;11.69;89.79;99874.16;4984917;28;20033;-35
2022/09/26 06:55:11;;;;;;;21.90;4.50;;;;;;;11.69;89.66;99874.16;4994224;28;20036;-35
2022/09/26 06:57:41;;;;;;;13.52;4.18;;;;;;;11.71;90.01;99866.69;4993838;28;20022;-34
2022/09/26 07:00:14;;;;;;;9.85;3.80;;;;;;;11.78;90.09;99872.88;5012053;28;20022;-34
2022/09/26 07:02:50;;;;;;;18.80;4.60;;;;;;;11.74;89.81;99861.72;5010977;28;20034;-35
2022/09/26 07:05:16;;;;;;;22.85;4.60;;;;;;;11.75;90.05;99852.56;4993737;28;20032;-34
2022/09/26 07:07:44;;;;;;;14.95;4.10;;;;;;;11.75;90.39;99852.56;5011853;28;20045;-36
2022/09/26 07:10:10;;;;;;;14.70;4.30;;;;;;;11.77;90.25;99853.19;4994827;28;20060;-35
2022/09/26 07:12:39;;;;;;;19.58;4.25;;;;;;;11.76;90.86;99843.44;4995075;28;20100;-35
2022/09/26 07:15:06;;;;;;;17.15;4.28;;;;;;;11.71;91.04;99834.34;4995464;28;20037;-36
2022/09/26 07:17:33;;;;;;;27.35;3.92;;;;;;;11.70;91.65;99836.22;5002324;28;20030;-36
2022/09/26 07:19:58;;;;;;;20.40;4.65;;;;;;;11.71;92.60;99839.72;5011571;28;20057;-33
2022/09/26 07:22:23;;;;;;;14.77;3.90;;;;;;;11.65;93.18;99842.25;5012821;28;20030;-35
2022/09/26 07:24:49;;;;;;;21.67;4.00;;;;;;;11.65;94.05;99826.06;5012800;28;20135;-34
2022/09/26 07:27:16;;;;;;;20.60;4.50;;;;;;;11.65;94.78;99826.06;5012283;28;20076;-33
2022/09/26 07:29:46;;;;;;;14.35;3.80;;;;;;;11.65;95.36;99830.63;4976456;28;20077;-34
2022/09/26 07:32:12;;;;;;;11.00;4.32;;;;;;;11.50;95.37;99833.59;5001553;28;20029;-34
2022/09/26 07:34:37;;;;;;;19.55;4.55;;;;;;;11.46;96.12;99843.16;5011020;28;20030;-34
2022/09/26 07:37:03;;;;;;;20.38;4.32;;;;;;;11.47;96.58;99844.78;4974600;28;20026;-35
2022/09/26 07:39:28;;;;;;;15.23;4.60;;;;;;;11.49;96.69;99852.69;4992750;28;20029;-36
2022/09/26 07:41:53;;;;;;;16.15;4.45;;;;;;;11.44;97.70;99834.44;5000820;28;20439;-36
2022/09/26 07:44:19;;;;;;;19.70;4.55;;;;;;;11.40;98.37;99825.13;4994430;28;20057;-35
2022/09/26 07:52:13;;;;;;;21.48;5.38;;;;;;;11.31;100.00;99826.41;5009214;28;20044;-35
2022/09/26 07:54:38;;;;;;;22.77;5.30;;;;;;;11.32;100.00;99830.75;4994812;28;20532;-35
2022/09/26 07:57:04;;;;;;;17.27;4.88;;;;;;;11.29;100.00;99832.00;5011225;28;20030;-34
2022/09/26 07:59:35;;;;;;;18.30;5.65;;;;;;;11.25;100.00;99829.94;5010616;28;20485;-37
2022/09/26 08:02:02;;;;;;;29.83;6.43;;;;;;;11.21;100.00;99824.97;5005822;28;20076;-38
2022/09/26 08:04:28;;;;;;;18.00;6.35;;;;;;;11.16;100.00;99822.09;5011301;28;20029;-42
2022/09/26 08:06:54;;;;;;;34.80;6.88;;;;;;;11.15;100.00;99817.75;4991462;28;20413;-39
2022/09/26 08:09:20;;;;;;;27.55;6.22;;;;;;;11.17;100.00;99815.66;5011355;28;20034;-39
2022/09/26 08:11:46;;;;;;;23.75;6.43;;;;;;;11.08;100.00;99814.22;5011056;28;20072;-41
2022/09/26 08:14:11;;;;;;;26.40;7.20;;;;;;;11.09;100.00;99817.78;5011216;28;20056;-40
2022/09/26 08:16:40;;;;;;;29.23;7.00;;;;;;;11.06;100.00;99821.72;4993181;28;20116;-40
2022/09/26 08:19:07;;;;;;;20.30;6.82;;;;;;;11.07;100.00;99814.44;4993917;28;20018;-42
2022/09/26 08:21:33;;;;;;;24.15;7.45;;;;;;;11.06;100.00;99805.56;4993883;28;20044;-40
2022/09/26 08:23:58;;;;;;;23.30;7.88;;;;;;;11.00;100.00;99811.75;5010704;28;20029;-37
2022/09/26 08:26:24;;;;;;;39.60;8.05;;;;;;;10.92;100.00;99814.66;5009945;28;20049;-35
2022/09/26 08:28:49;;;;;;;29.85;9.27;;;;;;;10.82;100.00;99801.66;5011076;28;20029;-35
2022/09/26 08:31:16;;;;;;;36.67;9.57;;;;;;;10.84;100.00;99791.50;4992931;28;20026;-34
2022/09/26 08:33:43;;;;;;;31.02;10.02;;;;;;;10.87;100.00;99795.63;4992829;28;20034;-37
2022/09/26 08:36:10;;;;;;;32.15;10.65;;;;;;;10.83;100.00;99791.72;5010517;28;20034;-35
2022/09/26 08:38:37;;;;;;;34.45;10.98;;;;;;;10.85;100.00;99784.25;5009443;28;20088;-39
2022/09/26 08:41:31;;;;;;;31.95;11.73;;;;;;;10.86;100.00;99781.34;5010813;28;20397;-36
2022/09/26 08:44:29;;;;;;;34.67;11.98;;;;;;;10.82;100.00;99763.97;5010906;28;20397;-39
2022/09/26 08:47:01;;;;;;;28.75;12.10;;;;;;;10.89;100.00;99766.66;5009001;28;20077;-39
2022/09/26 08:49:54;;;;;;;40.63;12.65;;;;;;;10.90;100.00;99770.97;5009511;28;20084;-38
2022/09/26 08:52:36;;;;;;;34.50;12.70;;;;;;;10.87;100.00;99761.47;5006655;28;20180;-39
2022/09/26 08:55:07;;;;;;;26.52;12.35;;;;;;;10.91;100.00;99761.88;5008786;28;20034;-37
2022/09/26 08:57:36;;;;;;;32.17;13.63;;;;;;;10.94;100.00;99754.19;4993457;28;20021;-38
2022/09/26 09:00:13;;;;;;;48.67;13.98;;;;;;;10.95;100.00;99749.63;4993539;28;20064;-36
2022/09/26 09:02:44;;;;;;;41.85;14.90;;;;;;;10.97;100.00;99761.03;5009335;28;20041;-38
2022/09/26 09:05:16;;;;;;;41.95;14.35;;;;;;;11.02;100.00;99747.75;4992989;28;20570;-36
2022/09/26 09:07:42;;;;;;;40.67;14.50;;;;;;;11.03;100.00;99752.09;5009855;28;20144;-33
2022/09/26 09:10:15;;;;;;;37.13;14.50;;;;;;;11.07;100.00;99749.81;5009473;28;20604;-34
2022/09/26 09:12:44;;;;;;;33.05;14.07;;;;;;;11.12;100.00;99737.38;5008875;28;20103;-34
2022/09/26 09:15:57;;;;;;;44.22;15.07;;;;;;;11.20;100.00;99749.78;5010839;28;20307;-34
2022/09/26 09:18:44;;;;;;;35.25;14.85;;;;;;;11.20;100.00;99745.22;4984416;28;20057;-38
2022/09/26 09:21:17;;;;;;;42.25;14.65;;;;;;;11.24;100.00;99742.91;4998276;28;20033;-38
2022/09/26 09:24:01;;;;;;;36.88;14.60;;;;;;;11.28;100.00;99738.75;4992944;28;20164;-37
2022/09/26 09:26:46;;;;;;;36.78;15.13;;;;;;;11.26;100.00;99737.31;4992343;28;20148;-38
2022/09/26 09:29:15;;;;;;;49.80;16.25;;;;;;;11.26;100.00;99740.03;4996394;28;20338;-37
2022/09/26 09:31:42;;;;;;;45.65;14.15;;;;;;;11.28;100.00;99748.72;5010052;28;20030;-38
2022/09/26 09:34:20;;;;;;;35.70;13.82;;;;;;;11.28;100.00;99732.56;4988880;28;20425;-36
2022/09/26 09:36:50;;;;;;;34.75;14.52;;;;;;;11.27;100.00;99736.28;4991604;28;20041;-35
2022/09/26 09:39:36;;;;;;;31.63;14.70;;;;;;;11.28;100.00;99730.69;4990632;28;20033;-38
2022/09/26 09:42:35;;;;;;;44.70;15.05;;;;;;;11.32;100.00;99729.22;5009677;28;20509;-37
2022/09/26 09:45:05;;;;;;;28.35;13.15;;;;;;;11.33;100.00;99730.06;5008968;28;20038;-37
2022/09/26 09:47:36;;;;;;;22.83;11.45;;;;;;;11.31;100.00;99743.72;4975439;28;20088;-36
2022/09/26 09:50:35;;;;;;;30.58;12.10;;;;;;;11.32;100.00;99729.22;5006263;28;20029;-38
2022/09/26 09:53:12;;;;;;;33.33;12.45;;;;;;;11.33;100.00;99730.88;4977680;28;20152;-35
2022/09/26 09:55:57;;;;;;;28.23;10.40;;;;;;;11.37;100.00;99745.59;4995381;28;20033;-38
2022/09/26 09:58:37;;;;;;;36.45;9.90;;;;;;;11.41;100.00;99737.88;4992933;28;20033;-35
2022/09/26 10:01:14;;;;;;;15.52;7.72;;;;;;;11.42;100.00;99728.75;5006633;28;20108;-33
2022/09/26 10:04:21;;;;;;;10.98;7.05;;;;;;;11.47;100.00;99720.03;4996276;28;20091;-36
2022/09/26 10:06:47;;;;;;;21.95;8.00;;;;;;;11.53;100.00;99713.78;4927926;29;20048;-41
2022/09/26 10:09:21;;;;;;;13.43;7.20;;;;;;;11.56;100.00;99708.78;4993283;28;20045;-37
2022/09/26 10:11:46;;;;;;;14.05;7.43;;;;;;;11.57;100.00;99713.13;4995562;28;20041;-35
2022/09/26 10:14:26;;;;;;;29.88;6.55;;;;;;;11.59;100.00;99711.06;5013986;28;20513;-36
2022/09/26 10:17:17;;;;;;;19.23;6.40;;;;;;;11.62;100.00;99712.50;4994756;28;20512;-37
2022/09/26 10:19:43;;;;;;;12.07;6.10;;;;;;;11.65;100.00;99712.88;5006474;28;20050;-35
2022/09/26 10:22:24;;;;;;;15.40;6.82;;;;;;;11.68;100.00;99708.09;5014007;28;20080;-34
2022/09/26 10:25:02;;;;;;;17.38;6.97;;;;;;;11.74;100.00;99699.13;4996512;28;20035;-32
2022/09/26 10:27:38;;;;;;;16.40;7.82;;;;;;;11.78;100.00;99703.06;4995849;28;20112;-34
2022/09/26 10:30:16;;;;;;;17.58;8.07;;;;;;;11.78;100.00;99708.44;4978185;28;20046;-33
2022/09/26 10:32:44;;;;;;;18.52;7.32;;;;;;;11.76;100.00;99714.06;5013201;28;20034;-35
2022/09/26 10:35:39;;;;;;;24.92;8.25;;;;;;;11.81;100.00;99699.94;5013793;28;20477;-33
2022/09/26 10:38:14;;;;;;;19.20;8.35;;;;;;;11.76;100.00;99697.88;4993168;28;20038;-34
2022/09/26 10:40:49;;;;;;;20.63;7.82;;;;;;;11.73;100.00;99697.50;4995489;28;20133;-33
2022/09/26 10:43:29;;;;;;;22.00;7.68;;;;;;;11.76;100.00;99697.88;4996011;28;20030;-39
2022/09/26 10:46:02;;;;;;;19.38;8.63;;;;;;;11.76;100.00;99694.34;5011018;28;20100;-40
2022/09/26 10:48:47;;;;;;;22.70;8.73;;;;;;;11.82;100.00;99702.41;5012815;28;20030;-37
2022/09/26 10:51:36;;;;;;;23.88;9.30;;;;;;;11.89;100.00;99699.69;4979719;28;20209;-36
2022/09/26 10:54:06;;;;;;;16.88;8.35;;;;;;;11.97;100.00;99702.13;5010129;28;20049;-33
2022/09/26 10:56:41;;;;;;;24.10;9.10;;;;;;;11.97;100.00;99699.41;5013013;28;20034;-35
2022/09/26 10:59:08;;;;;;;19.42;8.10;;;;;;;11.99;100.00;99701.91;4993430;28;20089;-34
2022/09/26 11:01:41;;;;;;;22.43;9.20;;;;;;;12.04;100.00;99700.19;4986566;28;20385;-36
2022/09/26 11:05:55;;;;;;;16.08;9.02;;;;;;;12.07;100.00;99709.72;4995132;28;20037;-35
2022/09/26 11:07:04;;;;;;;23.45;8.43;;;;;;;12.11;100.00;99702.81;4979408;28;20113;-34
2022/09/26 11:09:30;;;;;;;17.23;8.55;;;;;;;12.19;100.00;99696.34;4971327;28;20493;-36
2022/09/26 11:11:55;;;;;;;29.30;9.90;;;;;;;12.27;100.00;99694.22;4955197;28;20343;-34
2022/09/26 11:14:33;;;;;;;17.98;9.13;;;;;;;12.29;100.00;99697.50;4973177;28;20031;-32
2022/09/26 11:16:59;;;;;;;21.48;9.27;;;;;;;12.33;100.00;99694.38;4971851;28;20046;-34
2022/09/26 11:19:43;;;;;;;22.00;10.13;;;;;;;12.44;100.00;99699.84;4974047;28;20399;-36
2022/09/26 11:22:52;;;;;;;21.90;8.80;;;;;;;12.51;100.00;99689.81;4971796;28;20074;-34
2022/09/26 11:25:27;;;;;;;20.83;9.45;;;;;;;12.54;100.00;99691.25;4866236;29;20185;-34
2022/09/26 11:28:01;;;;;;;19.05;8.98;;;;;;;12.57;100.00;99690.81;4951182;28;20498;-33
2022/09/26 11:30:27;;;;;;;15.80;8.30;;;;;;;12.49;100.00;99686.53;4971701;28;20478;-33
2022/09/26 11:32:55;;;;;;;17.13;7.97;;;;;;;12.56;100.00;99686.47;4973197;28;20113;-32
2022/09/26 11:35:28;;;;;;;28.95;9.80;;;;;;;12.57;100.00;99681.88;4972316;28;20030;-32
2022/09/26 11:38:22;;;;;;;21.27;7.88;;;;;;;12.55;100.00;99681.28;4971811;28;20075;-33
2022/09/26 11:41:02;;;;;;;29.55;8.75;;;;;;;12.51;100.00;99670.94;4973090;28;20035;-32
2022/09/26 11:43:51;;;;;;;18.20;7.72;;;;;;;12.52;100.00;99675.28;4973568;28;20034;-33
2022/09/26 11:46:24;;;;;;;19.60;9.15;;;;;;;12.57;100.00;99671.91;4969807;28;20026;-32
2022/09/26 11:49:19;;;;;;;21.15;8.02;;;;;;;12.61;100.00;99666.88;4972212;28;20022;-32
2022/09/26 11:51:48;;;;;;;22.38;8.00;;;;;;;12.70;100.00;99670.94;4971773;28;20027;-33